Impacts TAF Board
For situational awareness. Not to be used for flight planning purposes.
IDs:

KGRK - Killeen-Ft Hood Rgnl, TX, US

Issued at 0000 UTC 19 Aug 2019
Updated at 0557 UTC 19 Aug 2019
Potential Impact None Slight Moderate High
Time0458Z 19/06Z 19/07Z 19/08Z 19/09Z 19/10Z 19/11Z 19/12Z 19/13Z 19/14Z 19/15Z 19/16Z 19/17Z 19/18Z>>
Type OBS PRVL PRVL PRVL PRVL PRVL PRVL
  [TEMP]  
PRVL
  [TEMP]  
PRVL PRVL PRVL PRVL PRVL PRVL
VIS 10 >6 >6 >6 >6 >6 >6 >6 >6 >6 >6 >6 >6 >6
CIG -- -- -- -- -- -- --
  [15]  
--
  [15]  
-- -- -- -- -- --
Cover CLR SKC SKC SKC SKC SKC SKC
  [BKN]  
SKC
  [BKN]  
SKC SKC SKC SKC SKC SKC
FltCat VFR VFR VFR VFR VFR VFR VFR
  [MVFR]  
VFR
  [MVFR]  
VFR VFR VFR VFR VFR VFR
WX -- -- -- -- -- -- --
  [--]  
--
  [--]  
-- -- -- -- -- --
WDir 150 140 140 140 140 140 140
[140]
140
[140]
140 140 140 140 140 140
WSpd 13 9 9 9 9 9 9
  [9]  
9
  [9]  
9 9 9 9 9 9
WGst -- -- -- -- -- -- --
  [--]  
--
  [--]  
-- -- -- -- -- --
Raw TAF
TAF KGRK 190000Z 1900/2006 14009KT 9999 SKC QNH2980INS
  TEMPO 1911/1913 BKN015 TX38/1921Z TN25/1912Z


Raw METAR
KGRK 190458Z AUTO 15013KT 10SM CLR 30/21 A2992 RMK AO2 SLP118 T02990206
KGRK 190358Z AUTO 15012KT 10SM CLR 31/20 A2990 RMK AO2 SLP112 T03110201
KGRK 190258Z AUTO 13008KT 10SM CLR 30/18 A2987 RMK AO2 SLP102 T03010178 52012

METAR Board
For situational awareness. Not to be used for flight planning purposes.